sensor_id;sensor_type;location;lat;lon;timestamp;P1;durP1;ratioP1;P2;durP2;ratioP2
11024;SDS011;22890;51.820;8.682;2023-04-07T00:01:33;8.17;;;6.17;;
11024;SDS011;22890;51.820;8.682;2023-04-07T00:04:00;7.27;;;5.03;;
11024;SDS011;22890;51.820;8.682;2023-04-07T00:06:28;7.27;;;5.00;;
11024;SDS011;22890;51.820;8.682;2023-04-07T00:08:55;6.93;;;5.53;;
11024;SDS011;22890;51.820;8.682;2023-04-07T00:11:22;7.10;;;5.67;;
11024;SDS011;22890;51.820;8.682;2023-04-07T00:13:49;8.57;;;5.43;;
11024;SDS011;22890;51.820;8.682;2023-04-07T00:16:16;6.67;;;5.47;;
11024;SDS011;22890;51.820;8.682;2023-04-07T00:18:44;7.00;;;5.47;;
11024;SDS011;22890;51.820;8.682;2023-04-07T00:21:11;6.97;;;5.13;;
11024;SDS011;22890;51.820;8.682;2023-04-07T00:23:38;7.10;;;5.50;;
11024;SDS011;22890;51.820;8.682;2023-04-07T00:26:05;5.50;;;4.70;;
11024;SDS011;22890;51.820;8.682;2023-04-07T00:28:32;6.53;;;5.33;;
11024;SDS011;22890;51.820;8.682;2023-04-07T00:30:59;7.17;;;5.53;;
11024;SDS011;22890;51.820;8.682;2023-04-07T00:33:26;5.60;;;4.50;;
11024;SDS011;22890;51.820;8.682;2023-04-07T00:35:53;6.90;;;5.40;;
11024;SDS011;22890;51.820;8.682;2023-04-07T00:38:20;6.87;;;5.00;;
11024;SDS011;22890;51.820;8.682;2023-04-07T00:40:46;6.00;;;4.83;;
11024;SDS011;22890;51.820;8.682;2023-04-07T00:43:13;7.83;;;5.80;;
11024;SDS011;22890;51.820;8.682;2023-04-07T00:45:41;7.33;;;5.07;;
11024;SDS011;22890;51.820;8.682;2023-04-07T00:48:08;7.87;;;5.37;;
11024;SDS011;22890;51.820;8.682;2023-04-07T00:50:36;7.03;;;4.97;;
11024;SDS011;22890;51.820;8.682;2023-04-07T00:53:03;6.93;;;5.37;;
11024;SDS011;22890;51.820;8.682;2023-04-07T00:55:30;9.27;;;5.67;;
11024;SDS011;22890;51.820;8.682;2023-04-07T00:57:58;6.70;;;5.30;;
11024;SDS011;22890;51.820;8.682;2023-04-07T01:00:25;5.97;;;4.73;;
11024;SDS011;22890;51.820;8.682;2023-04-07T01:02:57;6.50;;;5.60;;
11024;SDS011;22890;51.820;8.682;2023-04-07T01:05:41;5.67;;;4.73;;
11024;SDS011;22890;51.820;8.682;2023-04-07T01:08:28;6.13;;;4.57;;
11024;SDS011;22890;51.820;8.682;2023-04-07T01:11:05;7.37;;;5.20;;
11024;SDS011;22890;51.820;8.682;2023-04-07T01:16:47;5.97;;;4.80;;
11024;SDS011;22890;51.820;8.682;2023-04-07T01:19:32;5.33;;;4.80;;
11024;SDS011;22890;51.820;8.682;2023-04-07T01:22:05;5.83;;;4.63;;
11024;SDS011;22890;51.820;8.682;2023-04-07T01:27:33;6.77;;;5.07;;
11024;SDS011;22890;51.820;8.682;2023-04-07T01:30:19;8.60;;;5.70;;
11024;SDS011;22890;51.820;8.682;2023-04-07T01:32:49;6.83;;;4.77;;
11024;SDS011;22890;51.820;8.682;2023-04-07T01:35:19;7.20;;;5.33;;
11024;SDS011;22890;51.820;8.682;2023-04-07T01:37:47;7.37;;;4.90;;
11024;SDS011;22890;51.820;8.682;2023-04-07T01:40:15;7.23;;;5.27;;
11024;SDS011;22890;51.820;8.682;2023-04-07T01:42:43;6.90;;;4.90;;
11024;SDS011;22890;51.820;8.682;2023-04-07T01:45:11;6.40;;;5.00;;
11024;SDS011;22890;51.820;8.682;2023-04-07T01:47:38;8.27;;;5.43;;
11024;SDS011;22890;51.820;8.682;2023-04-07T01:50:06;8.70;;;5.20;;
11024;SDS011;22890;51.820;8.682;2023-04-07T01:52:36;7.37;;;5.60;;
11024;SDS011;22890;51.820;8.682;2023-04-07T01:55:05;7.70;;;5.20;;
11024;SDS011;22890;51.820;8.682;2023-04-07T01:57:36;7.87;;;6.20;;
11024;SDS011;22890;51.820;8.682;2023-04-07T02:00:10;6.50;;;5.00;;
11024;SDS011;22890;51.820;8.682;2023-04-07T02:02:40;6.30;;;4.97;;
11024;SDS011;22890;51.820;8.682;2023-04-07T02:05:11;6.97;;;5.73;;
11024;SDS011;22890;51.820;8.682;2023-04-07T02:07:42;6.97;;;5.53;;
11024;SDS011;22890;51.820;8.682;2023-04-07T02:10:15;7.17;;;5.63;;
11024;SDS011;22890;51.820;8.682;2023-04-07T02:12:45;9.03;;;5.67;;
11024;SDS011;22890;51.820;8.682;2023-04-07T02:15:17;8.13;;;5.47;;
11024;SDS011;22890;51.820;8.682;2023-04-07T02:17:46;6.67;;;5.23;;
11024;SDS011;22890;51.820;8.682;2023-04-07T02:20:17;6.67;;;5.03;;
11024;SDS011;22890;51.820;8.682;2023-04-07T02:22:45;6.57;;;5.20;;
11024;SDS011;22890;51.820;8.682;2023-04-07T02:25:21;7.07;;;5.17;;
11024;SDS011;22890;51.820;8.682;2023-04-07T02:27:53;6.93;;;5.33;;
11024;SDS011;22890;51.820;8.682;2023-04-07T02:30:21;6.33;;;5.47;;
11024;SDS011;22890;51.820;8.682;2023-04-07T02:32:49;8.27;;;5.40;;
11024;SDS011;22890;51.820;8.682;2023-04-07T02:35:16;6.10;;;5.00;;
11024;SDS011;22890;51.820;8.682;2023-04-07T02:37:44;7.40;;;5.30;;
11024;SDS011;22890;51.820;8.682;2023-04-07T02:40:11;6.73;;;5.17;;
11024;SDS011;22890;51.820;8.682;2023-04-07T02:42:39;8.03;;;5.50;;
11024;SDS011;22890;51.820;8.682;2023-04-07T02:45:06;6.80;;;5.17;;
11024;SDS011;22890;51.820;8.682;2023-04-07T02:47:36;6.17;;;5.23;;
11024;SDS011;22890;51.820;8.682;2023-04-07T02:50:03;6.40;;;4.57;;
11024;SDS011;22890;51.820;8.682;2023-04-07T02:52:33;6.60;;;5.23;;
11024;SDS011;22890;51.820;8.682;2023-04-07T02:55:04;5.80;;;5.00;;
11024;SDS011;22890;51.820;8.682;2023-04-07T02:57:32;9.93;;;5.60;;
11024;SDS011;22890;51.820;8.682;2023-04-07T03:00:02;8.30;;;5.87;;
11024;SDS011;22890;51.820;8.682;2023-04-07T03:02:45;6.57;;;5.00;;
11024;SDS011;22890;51.820;8.682;2023-04-07T03:05:14;10.40;;;5.67;;
11024;SDS011;22890;51.820;8.682;2023-04-07T03:07:41;6.40;;;5.30;;
11024;SDS011;22890;51.820;8.682;2023-04-07T03:10:09;7.43;;;5.77;;
11024;SDS011;22890;51.820;8.682;2023-04-07T03:12:36;7.67;;;5.77;;
11024;SDS011;22890;51.820;8.682;2023-04-07T03:15:03;7.57;;;6.10;;
11024;SDS011;22890;51.820;8.682;2023-04-07T03:17:30;8.40;;;5.50;;
11024;SDS011;22890;51.820;8.682;2023-04-07T03:19:57;9.13;;;6.40;;
11024;SDS011;22890;51.820;8.682;2023-04-07T03:22:25;8.90;;;5.93;;
11024;SDS011;22890;51.820;8.682;2023-04-07T03:24:52;7.77;;;5.77;;
11024;SDS011;22890;51.820;8.682;2023-04-07T03:27:22;7.50;;;5.50;;
11024;SDS011;22890;51.820;8.682;2023-04-07T03:29:49;9.27;;;6.43;;
11024;SDS011;22890;51.820;8.682;2023-04-07T03:32:17;7.97;;;5.53;;
11024;SDS011;22890;51.820;8.682;2023-04-07T03:34:43;6.73;;;5.67;;
11024;SDS011;22890;51.820;8.682;2023-04-07T03:37:12;8.37;;;6.10;;
11024;SDS011;22890;51.820;8.682;2023-04-07T03:39:40;7.30;;;5.87;;
11024;SDS011;22890;51.820;8.682;2023-04-07T03:42:22;6.53;;;5.37;;
11024;SDS011;22890;51.820;8.682;2023-04-07T03:44:54;10.70;;;6.07;;
11024;SDS011;22890;51.820;8.682;2023-04-07T03:47:21;6.83;;;5.20;;
11024;SDS011;22890;51.820;8.682;2023-04-07T03:49:54;8.03;;;5.70;;
11024;SDS011;22890;51.820;8.682;2023-04-07T03:52:21;8.93;;;6.13;;
11024;SDS011;22890;51.820;8.682;2023-04-07T03:54:52;7.30;;;5.33;;
11024;SDS011;22890;51.820;8.682;2023-04-07T03:57:24;7.97;;;5.40;;
11024;SDS011;22890;51.820;8.682;2023-04-07T03:59:52;7.00;;;4.53;;
11024;SDS011;22890;51.820;8.682;2023-04-07T04:02:20;6.80;;;5.60;;
11024;SDS011;22890;51.820;8.682;2023-04-07T04:04:50;7.93;;;5.93;;
11024;SDS011;22890;51.820;8.682;2023-04-07T04:07:20;7.93;;;5.67;;
11024;SDS011;22890;51.820;8.682;2023-04-07T04:09:49;9.30;;;5.53;;
11024;SDS011;22890;51.820;8.682;2023-04-07T04:12:17;8.20;;;5.87;;
11024;SDS011;22890;51.820;8.682;2023-04-07T04:14:56;8.17;;;5.30;;
11024;SDS011;22890;51.820;8.682;2023-04-07T04:17:23;7.93;;;5.67;;
11024;SDS011;22890;51.820;8.682;2023-04-07T04:19:51;8.20;;;4.83;;
11024;SDS011;22890;51.820;8.682;2023-04-07T04:22:24;8.40;;;5.50;;
11024;SDS011;22890;51.820;8.682;2023-04-07T04:24:54;8.13;;;5.73;;
11024;SDS011;22890;51.820;8.682;2023-04-07T04:27:23;8.77;;;6.33;;
11024;SDS011;22890;51.820;8.682;2023-04-07T04:29:57;7.33;;;5.23;;
11024;SDS011;22890;51.820;8.682;2023-04-07T04:32:33;7.60;;;6.03;;
11024;SDS011;22890;51.820;8.682;2023-04-07T04:35:01;8.13;;;5.90;;
11024;SDS011;22890;51.820;8.682;2023-04-07T04:37:31;7.00;;;5.57;;
11024;SDS011;22890;51.820;8.682;2023-04-07T04:40:00;8.90;;;6.73;;
11024;SDS011;22890;51.820;8.682;2023-04-07T04:42:27;7.30;;;5.90;;
11024;SDS011;22890;51.820;8.682;2023-04-07T04:44:56;7.80;;;5.90;;
11024;SDS011;22890;51.820;8.682;2023-04-07T04:47:24;10.10;;;6.67;;
11024;SDS011;22890;51.820;8.682;2023-04-07T04:49:52;7.77;;;5.63;;
11024;SDS011;22890;51.820;8.682;2023-04-07T04:52:19;10.43;;;6.23;;
11024;SDS011;22890;51.820;8.682;2023-04-07T04:54:48;7.80;;;5.80;;
11024;SDS011;22890;51.820;8.682;2023-04-07T04:57:16;8.33;;;6.07;;
11024;SDS011;22890;51.820;8.682;2023-04-07T04:59:44;8.27;;;5.77;;
11024;SDS011;22890;51.820;8.682;2023-04-07T05:02:11;7.93;;;6.00;;
11024;SDS011;22890;51.820;8.682;2023-04-07T05:04:38;10.30;;;7.30;;
11024;SDS011;22890;51.820;8.682;2023-04-07T05:07:22;8.50;;;6.30;;
11024;SDS011;22890;51.820;8.682;2023-04-07T05:09:50;7.97;;;5.93;;
11024;SDS011;22890;51.820;8.682;2023-04-07T05:12:19;9.30;;;6.10;;
11024;SDS011;22890;51.820;8.682;2023-04-07T05:14:53;11.03;;;6.30;;
11024;SDS011;22890;51.820;8.682;2023-04-07T05:17:19;8.60;;;6.90;;
11024;SDS011;22890;51.820;8.682;2023-04-07T05:19:47;8.53;;;6.33;;
11024;SDS011;22890;51.820;8.682;2023-04-07T05:22:23;8.00;;;5.93;;
11024;SDS011;22890;51.820;8.682;2023-04-07T05:24:50;8.80;;;6.80;;
11024;SDS011;22890;51.820;8.682;2023-04-07T05:27:18;9.17;;;6.73;;
11024;SDS011;22890;51.820;8.682;2023-04-07T05:29:49;9.03;;;6.70;;
11024;SDS011;22890;51.820;8.682;2023-04-07T05:32:23;10.57;;;6.97;;
11024;SDS011;22890;51.820;8.682;2023-04-07T05:34:50;10.03;;;6.57;;
11024;SDS011;22890;51.820;8.682;2023-04-07T05:37:18;8.70;;;6.33;;
11024;SDS011;22890;51.820;8.682;2023-04-07T05:39:46;8.07;;;6.03;;
11024;SDS011;22890;51.820;8.682;2023-04-07T05:42:13;7.03;;;5.70;;
11024;SDS011;22890;51.820;8.682;2023-04-07T05:44:44;8.70;;;6.17;;
11024;SDS011;22890;51.820;8.682;2023-04-07T05:47:12;7.63;;;5.97;;
11024;SDS011;22890;51.820;8.682;2023-04-07T05:49:39;9.50;;;6.67;;
11024;SDS011;22890;51.820;8.682;2023-04-07T05:52:12;10.47;;;6.37;;
11024;SDS011;22890;51.820;8.682;2023-04-07T05:54:42;6.97;;;5.30;;
11024;SDS011;22890;51.820;8.682;2023-04-07T05:57:12;8.63;;;5.70;;
11024;SDS011;22890;51.820;8.682;2023-04-07T05:59:42;8.73;;;6.03;;
11024;SDS011;22890;51.820;8.682;2023-04-07T06:02:09;8.93;;;5.73;;
11024;SDS011;22890;51.820;8.682;2023-04-07T06:04:37;7.63;;;5.80;;
11024;SDS011;22890;51.820;8.682;2023-04-07T06:07:07;11.27;;;6.63;;
11024;SDS011;22890;51.820;8.682;2023-04-07T06:09:34;8.07;;;6.37;;
11024;SDS011;22890;51.820;8.682;2023-04-07T06:12:01;10.43;;;6.60;;
11024;SDS011;22890;51.820;8.682;2023-04-07T06:14:31;8.57;;;6.33;;
11024;SDS011;22890;51.820;8.682;2023-04-07T06:16:58;9.73;;;5.77;;
11024;SDS011;22890;51.820;8.682;2023-04-07T06:19:26;9.40;;;6.60;;
11024;SDS011;22890;51.820;8.682;2023-04-07T06:21:53;10.07;;;6.30;;
11024;SDS011;22890;51.820;8.682;2023-04-07T06:24:20;8.87;;;6.07;;
11024;SDS011;22890;51.820;8.682;2023-04-07T06:26:51;9.27;;;6.30;;
11024;SDS011;22890;51.820;8.682;2023-04-07T06:29:19;8.63;;;6.30;;
11024;SDS011;22890;51.820;8.682;2023-04-07T06:31:47;8.07;;;5.93;;
11024;SDS011;22890;51.820;8.682;2023-04-07T06:34:14;11.67;;;6.97;;
11024;SDS011;22890;51.820;8.682;2023-04-07T06:36:41;10.20;;;6.10;;
11024;SDS011;22890;51.820;8.682;2023-04-07T06:39:08;8.80;;;6.80;;
11024;SDS011;22890;51.820;8.682;2023-04-07T06:41:35;8.80;;;6.40;;
11024;SDS011;22890;51.820;8.682;2023-04-07T06:44:03;10.13;;;6.93;;
11024;SDS011;22890;51.820;8.682;2023-04-07T06:46:33;9.53;;;6.73;;
11024;SDS011;22890;51.820;8.682;2023-04-07T06:49:00;8.60;;;6.70;;
11024;SDS011;22890;51.820;8.682;2023-04-07T06:51:27;9.97;;;6.80;;
11024;SDS011;22890;51.820;8.682;2023-04-07T06:53:54;7.90;;;5.73;;
11024;SDS011;22890;51.820;8.682;2023-04-07T06:56:21;7.97;;;6.13;;
11024;SDS011;22890;51.820;8.682;2023-04-07T06:58:48;7.77;;;5.43;;
11024;SDS011;22890;51.820;8.682;2023-04-07T07:01:16;7.57;;;5.77;;
11024;SDS011;22890;51.820;8.682;2023-04-07T07:03:43;8.83;;;6.33;;
11024;SDS011;22890;51.820;8.682;2023-04-07T07:06:10;9.17;;;6.37;;
11024;SDS011;22890;51.820;8.682;2023-04-07T07:08:37;8.23;;;5.97;;
11024;SDS011;22890;51.820;8.682;2023-04-07T07:11:04;7.13;;;5.33;;
11024;SDS011;22890;51.820;8.682;2023-04-07T07:13:30;8.13;;;6.07;;
11024;SDS011;22890;51.820;8.682;2023-04-07T07:15:58;7.63;;;5.83;;
11024;SDS011;22890;51.820;8.682;2023-04-07T07:18:25;6.30;;;4.87;;
11024;SDS011;22890;51.820;8.682;2023-04-07T07:20:52;5.47;;;4.40;;
11024;SDS011;22890;51.820;8.682;2023-04-07T07:23:19;7.50;;;5.40;;
11024;SDS011;22890;51.820;8.682;2023-04-07T07:25:46;8.27;;;5.57;;
11024;SDS011;22890;51.820;8.682;2023-04-07T07:28:13;7.03;;;5.03;;
11024;SDS011;22890;51.820;8.682;2023-04-07T07:30:41;5.50;;;4.43;;
11024;SDS011;22890;51.820;8.682;2023-04-07T07:33:08;4.70;;;3.90;;
11024;SDS011;22890;51.820;8.682;2023-04-07T07:35:35;6.43;;;4.80;;
11024;SDS011;22890;51.820;8.682;2023-04-07T07:38:03;5.20;;;4.20;;
11024;SDS011;22890;51.820;8.682;2023-04-07T07:40:30;5.83;;;3.90;;
11024;SDS011;22890;51.820;8.682;2023-04-07T07:42:57;6.33;;;4.67;;
11024;SDS011;22890;51.820;8.682;2023-04-07T07:45:24;5.63;;;4.07;;
11024;SDS011;22890;51.820;8.682;2023-04-07T07:47:52;5.73;;;4.53;;
11024;SDS011;22890;51.820;8.682;2023-04-07T07:50:19;5.70;;;4.80;;
11024;SDS011;22890;51.820;8.682;2023-04-07T07:52:47;6.63;;;4.17;;
11024;SDS011;22890;51.820;8.682;2023-04-07T07:55:14;5.37;;;4.37;;
11024;SDS011;22890;51.820;8.682;2023-04-07T07:57:41;5.13;;;4.57;;
11024;SDS011;22890;51.820;8.682;2023-04-07T08:00:08;5.23;;;4.73;;
11024;SDS011;22890;51.820;8.682;2023-04-07T08:02:39;7.87;;;4.90;;
11024;SDS011;22890;51.820;8.682;2023-04-07T08:05:06;5.60;;;4.47;;
11024;SDS011;22890;51.820;8.682;2023-04-07T08:07:33;8.03;;;5.17;;
11024;SDS011;22890;51.820;8.682;2023-04-07T08:10:00;6.90;;;4.90;;
11024;SDS011;22890;51.820;8.682;2023-04-07T08:12:27;6.30;;;4.93;;
11024;SDS011;22890;51.820;8.682;2023-04-07T08:14:55;6.73;;;4.13;;
11024;SDS011;22890;51.820;8.682;2023-04-07T08:17:22;6.37;;;4.53;;
11024;SDS011;22890;51.820;8.682;2023-04-07T08:19:49;5.80;;;4.53;;
11024;SDS011;22890;51.820;8.682;2023-04-07T08:22:16;4.23;;;3.63;;
11024;SDS011;22890;51.820;8.682;2023-04-07T08:24:46;6.13;;;4.40;;
11024;SDS011;22890;51.820;8.682;2023-04-07T08:27:13;4.60;;;3.80;;
11024;SDS011;22890;51.820;8.682;2023-04-07T08:29:40;4.93;;;3.93;;
11024;SDS011;22890;51.820;8.682;2023-04-07T08:32:07;4.57;;;3.83;;
11024;SDS011;22890;51.820;8.682;2023-04-07T08:34:34;4.67;;;3.87;;
11024;SDS011;22890;51.820;8.682;2023-04-07T08:37:01;4.83;;;3.17;;
11024;SDS011;22890;51.820;8.682;2023-04-07T08:39:28;4.03;;;3.10;;
11024;SDS011;22890;51.820;8.682;2023-04-07T08:41:55;4.57;;;3.50;;
11024;SDS011;22890;51.820;8.682;2023-04-07T08:44:23;3.73;;;2.80;;
11024;SDS011;22890;51.820;8.682;2023-04-07T08:46:52;4.30;;;3.40;;
11024;SDS011;22890;51.820;8.682;2023-04-07T08:49:22;4.03;;;3.70;;
11024;SDS011;22890;51.820;8.682;2023-04-07T08:51:52;5.43;;;3.67;;
11024;SDS011;22890;51.820;8.682;2023-04-07T08:54:21;4.80;;;3.77;;
11024;SDS011;22890;51.820;8.682;2023-04-07T08:56:49;4.20;;;3.40;;
11024;SDS011;22890;51.820;8.682;2023-04-07T08:59:17;3.80;;;3.50;;
11024;SDS011;22890;51.820;8.682;2023-04-07T09:01:47;4.03;;;3.63;;
11024;SDS011;22890;51.820;8.682;2023-04-07T09:04:14;9.20;;;4.70;;
11024;SDS011;22890;51.820;8.682;2023-04-07T09:06:42;4.93;;;3.77;;
11024;SDS011;22890;51.820;8.682;2023-04-07T09:09:08;4.70;;;3.30;;
11024;SDS011;22890;51.820;8.682;2023-04-07T09:11:37;4.83;;;3.63;;
11024;SDS011;22890;51.820;8.682;2023-04-07T09:14:05;4.13;;;3.67;;
11024;SDS011;22890;51.820;8.682;2023-04-07T09:16:32;4.17;;;3.57;;
11024;SDS011;22890;51.820;8.682;2023-04-07T09:18:59;4.17;;;3.70;;
11024;SDS011;22890;51.820;8.682;2023-04-07T09:21:26;7.53;;;3.77;;
11024;SDS011;22890;51.820;8.682;2023-04-07T09:24:23;3.57;;;3.27;;
11024;SDS011;22890;51.820;8.682;2023-04-07T09:26:50;4.20;;;3.60;;
11024;SDS011;22890;51.820;8.682;2023-04-07T09:29:33;3.73;;;3.20;;
11024;SDS011;22890;51.820;8.682;2023-04-07T09:32:00;3.70;;;3.20;;
11024;SDS011;22890;51.820;8.682;2023-04-07T09:34:27;4.17;;;3.07;;
11024;SDS011;22890;51.820;8.682;2023-04-07T09:36:58;3.20;;;2.90;;
11024;SDS011;22890;51.820;8.682;2023-04-07T09:39:26;4.13;;;3.07;;
11024;SDS011;22890;51.820;8.682;2023-04-07T09:41:53;3.70;;;3.03;;
11024;SDS011;22890;51.820;8.682;2023-04-07T09:44:20;4.47;;;3.07;;
11024;SDS011;22890;51.820;8.682;2023-04-07T09:46:51;3.33;;;3.00;;
11024;SDS011;22890;51.820;8.682;2023-04-07T09:49:24;3.30;;;2.77;;
11024;SDS011;22890;51.820;8.682;2023-04-07T09:54:31;3.23;;;2.93;;
11024;SDS011;22890;51.820;8.682;2023-04-07T09:57:00;3.77;;;2.97;;
11024;SDS011;22890;51.820;8.682;2023-04-07T09:59:28;3.07;;;2.77;;
11024;SDS011;22890;51.820;8.682;2023-04-07T10:01:56;3.27;;;2.93;;
11024;SDS011;22890;51.820;8.682;2023-04-07T10:04:24;3.17;;;2.87;;
11024;SDS011;22890;51.820;8.682;2023-04-07T10:06:55;4.40;;;3.50;;
11024;SDS011;22890;51.820;8.682;2023-04-07T10:09:23;4.27;;;3.13;;
11024;SDS011;22890;51.820;8.682;2023-04-07T10:11:51;3.50;;;3.00;;
11024;SDS011;22890;51.820;8.682;2023-04-07T10:14:20;2.37;;;2.17;;
11024;SDS011;22890;51.820;8.682;2023-04-07T10:16:48;3.37;;;2.70;;
11024;SDS011;22890;51.820;8.682;2023-04-07T10:19:17;2.47;;;2.27;;
11024;SDS011;22890;51.820;8.682;2023-04-07T10:21:44;2.53;;;2.30;;
11024;SDS011;22890;51.820;8.682;2023-04-07T10:24:26;2.80;;;2.50;;
11024;SDS011;22890;51.820;8.682;2023-04-07T10:27:18;2.47;;;2.10;;
11024;SDS011;22890;51.820;8.682;2023-04-07T10:29:49;2.87;;;2.40;;
11024;SDS011;22890;51.820;8.682;2023-04-07T10:32:17;3.20;;;2.90;;
11024;SDS011;22890;51.820;8.682;2023-04-07T10:37:21;2.63;;;2.40;;
11024;SDS011;22890;51.820;8.682;2023-04-07T10:39:49;2.63;;;2.33;;
11024;SDS011;22890;51.820;8.682;2023-04-07T10:45:07;2.47;;;2.27;;
11024;SDS011;22890;51.820;8.682;2023-04-07T10:47:35;2.20;;;2.00;;
11024;SDS011;22890;51.820;8.682;2023-04-07T10:50:25;2.40;;;2.20;;
11024;SDS011;22890;51.820;8.682;2023-04-07T10:53:07;1.73;;;1.63;;
11024;SDS011;22890;51.820;8.682;2023-04-07T10:55:38;2.30;;;2.10;;
11024;SDS011;22890;51.820;8.682;2023-04-07T11:03:41;3.83;;;2.60;;
11024;SDS011;22890;51.820;8.682;2023-04-07T11:06:18;2.00;;;1.87;;
11024;SDS011;22890;51.820;8.682;2023-04-07T11:08:46;2.67;;;2.43;;
11024;SDS011;22890;51.820;8.682;2023-04-07T11:11:15;2.10;;;1.90;;
11024;SDS011;22890;51.820;8.682;2023-04-07T11:13:49;2.47;;;2.23;;
11024;SDS011;22890;51.820;8.682;2023-04-07T11:16:17;3.73;;;3.00;;
11024;SDS011;22890;51.820;8.682;2023-04-07T11:18:46;2.90;;;2.57;;
11024;SDS011;22890;51.820;8.682;2023-04-07T11:21:16;3.97;;;2.87;;
11024;SDS011;22890;51.820;8.682;2023-04-07T11:23:45;3.50;;;3.20;;
11024;SDS011;22890;51.820;8.682;2023-04-07T11:26:13;3.40;;;3.00;;
11024;SDS011;22890;51.820;8.682;2023-04-07T11:28:44;4.03;;;3.63;;
11024;SDS011;22890;51.820;8.682;2023-04-07T11:31:20;4.70;;;3.43;;
11024;SDS011;22890;51.820;8.682;2023-04-07T11:33:57;5.37;;;3.80;;
11024;SDS011;22890;51.820;8.682;2023-04-07T11:36:29;4.23;;;3.83;;
11024;SDS011;22890;51.820;8.682;2023-04-07T11:39:16;4.43;;;3.50;;
11024;SDS011;22890;51.820;8.682;2023-04-07T11:41:47;4.20;;;3.80;;
11024;SDS011;22890;51.820;8.682;2023-04-07T11:44:15;4.83;;;3.90;;
11024;SDS011;22890;51.820;8.682;2023-04-07T11:46:55;3.87;;;3.47;;
11024;SDS011;22890;51.820;8.682;2023-04-07T11:49:24;3.57;;;2.87;;
11024;SDS011;22890;51.820;8.682;2023-04-07T11:57:24;4.80;;;3.20;;
11024;SDS011;22890;51.820;8.682;2023-04-07T12:00:05;3.70;;;3.40;;
11024;SDS011;22890;51.820;8.682;2023-04-07T12:02:33;3.97;;;3.67;;
11024;SDS011;22890;51.820;8.682;2023-04-07T12:05:01;3.53;;;3.23;;
11024;SDS011;22890;51.820;8.682;2023-04-07T12:07:28;3.63;;;3.07;;
11024;SDS011;22890;51.820;8.682;2023-04-07T12:09:56;6.43;;;3.47;;
11024;SDS011;22890;51.820;8.682;2023-04-07T12:12:24;3.93;;;3.53;;
11024;SDS011;22890;51.820;8.682;2023-04-07T12:14:52;5.53;;;4.80;;
11024;SDS011;22890;51.820;8.682;2023-04-07T12:17:23;9.87;;;7.67;;
11024;SDS011;22890;51.820;8.682;2023-04-07T12:19:52;8.13;;;6.73;;
11024;SDS011;22890;51.820;8.682;2023-04-07T12:22:19;4.70;;;4.27;;
11024;SDS011;22890;51.820;8.682;2023-04-07T12:24:46;3.80;;;3.13;;
11024;SDS011;22890;51.820;8.682;2023-04-07T12:27:13;3.87;;;3.50;;
11024;SDS011;22890;51.820;8.682;2023-04-07T12:29:40;3.80;;;3.50;;
11024;SDS011;22890;51.820;8.682;2023-04-07T12:32:08;5.23;;;4.43;;
11024;SDS011;22890;51.820;8.682;2023-04-07T12:34:36;5.67;;;4.40;;
11024;SDS011;22890;51.820;8.682;2023-04-07T12:37:03;4.00;;;3.60;;
11024;SDS011;22890;51.820;8.682;2023-04-07T12:39:30;6.37;;;4.67;;
11024;SDS011;22890;51.820;8.682;2023-04-07T12:41:58;4.73;;;3.80;;
11024;SDS011;22890;51.820;8.682;2023-04-07T12:44:25;4.27;;;3.87;;
11024;SDS011;22890;51.820;8.682;2023-04-07T12:46:52;4.33;;;3.80;;
11024;SDS011;22890;51.820;8.682;2023-04-07T12:49:19;4.13;;;3.73;;
11024;SDS011;22890;51.820;8.682;2023-04-07T12:51:46;6.93;;;4.63;;
11024;SDS011;22890;51.820;8.682;2023-04-07T12:54:13;5.73;;;3.93;;
11024;SDS011;22890;51.820;8.682;2023-04-07T12:56:41;4.63;;;4.20;;
11024;SDS011;22890;51.820;8.682;2023-04-07T12:59:08;5.00;;;4.50;;
11024;SDS011;22890;51.820;8.682;2023-04-07T13:07:42;3.93;;;3.53;;
11024;SDS011;22890;51.820;8.682;2023-04-07T13:10:09;4.00;;;3.60;;
11024;SDS011;22890;51.820;8.682;2023-04-07T13:12:36;4.40;;;3.83;;
11024;SDS011;22890;51.820;8.682;2023-04-07T13:15:05;3.83;;;3.43;;
11024;SDS011;22890;51.820;8.682;2023-04-07T13:17:32;5.07;;;3.57;;
11024;SDS011;22890;51.820;8.682;2023-04-07T13:20:02;5.60;;;4.30;;
11024;SDS011;22890;51.820;8.682;2023-04-07T13:22:30;4.60;;;4.20;;
11024;SDS011;22890;51.820;8.682;2023-04-07T13:24:57;4.97;;;4.47;;
11024;SDS011;22890;51.820;8.682;2023-04-07T13:27:25;4.50;;;4.10;;
11024;SDS011;22890;51.820;8.682;2023-04-07T13:29:53;4.50;;;4.00;;
11024;SDS011;22890;51.820;8.682;2023-04-07T13:32:20;4.93;;;4.17;;
11024;SDS011;22890;51.820;8.682;2023-04-07T13:34:48;4.53;;;3.67;;
11024;SDS011;22890;51.820;8.682;2023-04-07T13:37:15;5.13;;;4.40;;
11024;SDS011;22890;51.820;8.682;2023-04-07T13:39:44;6.17;;;4.60;;
11024;SDS011;22890;51.820;8.682;2023-04-07T13:42:12;5.07;;;4.50;;
11024;SDS011;22890;51.820;8.682;2023-04-07T13:44:41;6.77;;;4.30;;
11024;SDS011;22890;51.820;8.682;2023-04-07T13:47:12;8.17;;;6.17;;
11024;SDS011;22890;51.820;8.682;2023-04-07T13:49:45;7.13;;;5.57;;
11024;SDS011;22890;51.820;8.682;2023-04-07T13:52:12;5.60;;;5.00;;
11024;SDS011;22890;51.820;8.682;2023-04-07T13:54:40;6.03;;;4.60;;
11024;SDS011;22890;51.820;8.682;2023-04-07T13:57:07;5.40;;;4.40;;
11024;SDS011;22890;51.820;8.682;2023-04-07T13:59:34;5.27;;;4.77;;
11024;SDS011;22890;51.820;8.682;2023-04-07T14:02:01;5.00;;;4.50;;
11024;SDS011;22890;51.820;8.682;2023-04-07T14:04:28;5.17;;;4.67;;
11024;SDS011;22890;51.820;8.682;2023-04-07T14:06:55;4.80;;;4.20;;
11024;SDS011;22890;51.820;8.682;2023-04-07T14:09:22;5.87;;;5.27;;
11024;SDS011;22890;51.820;8.682;2023-04-07T14:11:49;5.13;;;4.60;;
11024;SDS011;22890;51.820;8.682;2023-04-07T14:14:16;7.00;;;5.17;;
11024;SDS011;22890;51.820;8.682;2023-04-07T14:16:43;4.87;;;4.37;;
11024;SDS011;22890;51.820;8.682;2023-04-07T14:19:10;4.93;;;4.03;;
11024;SDS011;22890;51.820;8.682;2023-04-07T14:21:37;5.70;;;4.80;;
11024;SDS011;22890;51.820;8.682;2023-04-07T14:24:04;4.97;;;4.33;;
11024;SDS011;22890;51.820;8.682;2023-04-07T14:26:31;5.70;;;4.73;;
11024;SDS011;22890;51.820;8.682;2023-04-07T14:28:58;7.67;;;5.67;;
11024;SDS011;22890;51.820;8.682;2023-04-07T14:31:25;6.33;;;4.73;;
11024;SDS011;22890;51.820;8.682;2023-04-07T14:33:52;5.60;;;4.47;;
11024;SDS011;22890;51.820;8.682;2023-04-07T14:36:20;5.33;;;4.80;;
11024;SDS011;22890;51.820;8.682;2023-04-07T14:38:47;5.57;;;4.77;;
11024;SDS011;22890;51.820;8.682;2023-04-07T14:41:15;5.50;;;5.00;;
11024;SDS011;22890;51.820;8.682;2023-04-07T14:43:43;24.70;;;15.07;;
11024;SDS011;22890;51.820;8.682;2023-04-07T14:46:10;10.97;;;8.40;;
11024;SDS011;22890;51.820;8.682;2023-04-07T14:48:37;5.43;;;4.77;;
11024;SDS011;22890;51.820;8.682;2023-04-07T14:51:11;8.43;;;6.37;;
11024;SDS011;22890;51.820;8.682;2023-04-07T14:53:39;6.27;;;5.67;;
11024;SDS011;22890;51.820;8.682;2023-04-07T14:56:07;6.73;;;6.07;;
11024;SDS011;22890;51.820;8.682;2023-04-07T14:58:34;5.57;;;4.93;;
11024;SDS011;22890;51.820;8.682;2023-04-07T15:01:04;7.03;;;6.37;;
11024;SDS011;22890;51.820;8.682;2023-04-07T15:03:31;6.13;;;5.47;;
11024;SDS011;22890;51.820;8.682;2023-04-07T15:06:00;9.73;;;8.73;;
11024;SDS011;22890;51.820;8.682;2023-04-07T15:08:27;7.70;;;6.33;;
11024;SDS011;22890;51.820;8.682;2023-04-07T15:10:54;6.60;;;5.90;;
11024;SDS011;22890;51.820;8.682;2023-04-07T15:13:21;9.57;;;8.67;;
11024;SDS011;22890;51.820;8.682;2023-04-07T15:15:48;8.27;;;5.63;;
11024;SDS011;22890;51.820;8.682;2023-04-07T15:18:15;6.50;;;5.40;;
11024;SDS011;22890;51.820;8.682;2023-04-07T15:20:42;6.60;;;5.90;;
11024;SDS011;22890;51.820;8.682;2023-04-07T15:23:09;9.37;;;7.67;;
11024;SDS011;22890;51.820;8.682;2023-04-07T15:25:39;6.17;;;5.47;;
11024;SDS011;22890;51.820;8.682;2023-04-07T15:28:06;5.37;;;4.77;;
11024;SDS011;22890;51.820;8.682;2023-04-07T15:30:33;5.93;;;5.10;;